الصفحة الرئيسية
METAR-TAF:

METAR-TAF

مطار :

جزيرة بياك, إندونيسيا

دائرة عرض: 01-11S, خط طول: 136-07E, ارتفاع: 11 متر

METAR: مفقودة

زمن: 10:12 (03:12 UTC)

توقعات

تاريخ ووقت الإصدار 5ساعات و 12 دقيقة قبل الساعة 22:00UTC
التوقعات صالحة من01 الساعة 00 UTC إلى 02 الساعة 06 UTC
ريح 8 عقدة من الشمال الغربي
الرؤية: 8000 متر
غيوم متفرقة على ارتفاع 1800 قدم
مؤقت
من 01 الساعة 00 UTC إلى 01 الساعة 04 UTC
غيوم مفككة على ارتفاع 1800 قدم
مطر

TAF: WABB 302200Z 0100/0206 31008KT 8000 SCT018 TEMPO 0100/0104 RA BKN018

أرصاد الطقس والتوقعات من أكثر من 4000 مطار (تقارير الطقس للمطار METAR والتنبؤ بالطقس بالمطارTAF).

المحطات المتاحة هي النقط الصفراء والحمراء على الخريطة.

حرك المؤشر فوق النقطة لمعرفة اسم المحطة.

ثم انقر لمعرفة أرصاد وتوقعات الطقس.

لتغيير الخارطة: اضغط على الأزرار الخضراء مع رمز الصليب الأسود للتكبير. على الزر الأخضر مع شرطة للتصغير، أو على الأسهم الخضراء للخرائط المجاورة.


METAR-TAF: